createdAt,value
2023-03-31T00:01:24.998Z,17.66
2023-03-31T00:04:02.078Z,17.69
2023-03-31T00:06:32.635Z,17.69
2023-03-31T00:09:02.059Z,17.65
2023-03-31T00:11:30.032Z,17.65
2023-03-31T00:13:57.962Z,17.66
2023-03-31T00:16:26.652Z,17.70
2023-03-31T00:18:55.397Z,17.69
2023-03-31T00:21:25.319Z,17.72
2023-03-31T00:23:57.009Z,17.78
2023-03-31T00:26:26.310Z,17.76
2023-03-31T00:28:55.076Z,17.78
2023-03-31T00:31:24.209Z,17.78
2023-03-31T00:33:51.928Z,17.68
2023-03-31T00:36:29.931Z,17.69
2023-03-31T00:39:02.527Z,17.62
2023-03-31T00:41:31.611Z,17.48
2023-03-31T00:44:13.230Z,17.49
2023-03-31T00:47:02.431Z,17.45
2023-03-31T00:49:58.007Z,17.42
2023-03-31T00:52:37.987Z,17.41
2023-03-31T00:55:14.047Z,17.42
2023-03-31T00:57:44.698Z,17.44
2023-03-31T01:00:18.832Z,17.50
2023-03-31T01:02:55.839Z,17.53
2023-03-31T01:05:31.308Z,17.57
2023-03-31T01:08:00.487Z,17.55
2023-03-31T01:10:30.183Z,17.62
2023-03-31T01:12:58.906Z,17.57
2023-03-31T01:15:27.067Z,17.49
2023-03-31T01:17:56.079Z,17.43
2023-03-31T01:20:27.335Z,17.43
2023-03-31T01:23:22.515Z,17.32
2023-03-31T01:26:28.468Z,17.23
2023-03-31T01:29:17.727Z,17.33
2023-03-31T01:31:51.100Z,17.28
2023-03-31T01:34:37.008Z,17.31
2023-03-31T01:37:53.393Z,17.22
2023-03-31T01:40:41.865Z,17.17
2023-03-31T01:43:26.473Z,17.14
2023-03-31T01:46:10.485Z,17.14
2023-03-31T01:49:21.084Z,17.13
2023-03-31T01:52:06.811Z,17.12
2023-03-31T01:55:04.002Z,17.15
2023-03-31T01:57:45.546Z,17.10
2023-03-31T02:00:18.227Z,17.13
2023-03-31T02:03:12.698Z,17.09
2023-03-31T02:05:51.585Z,17.10
2023-03-31T02:08:32.175Z,17.10
2023-03-31T02:11:00.919Z,17.07
2023-03-31T02:13:30.436Z,17.06
2023-03-31T02:16:06.892Z,17.10
2023-03-31T02:18:38.514Z,17.06
2023-03-31T02:21:08.812Z,17.07
2023-03-31T02:23:38.490Z,17.08
2023-03-31T02:26:31.323Z,17.12
2023-03-31T02:28:59.756Z,17.13
2023-03-31T02:32:09.897Z,17.19
2023-03-31T02:34:37.995Z,17.17
2023-03-31T02:37:06.569Z,17.23
2023-03-31T02:39:38.894Z,17.28
2023-03-31T02:42:09.980Z,17.27
2023-03-31T02:44:39.705Z,17.27
2023-03-31T02:47:15.530Z,17.28
2023-03-31T02:49:57.770Z,17.25
2023-03-31T02:53:30.889Z,17.25
2023-03-31T02:56:24.714Z,17.30
2023-03-31T02:59:10.464Z,17.34
2023-03-31T03:01:44.453Z,17.38
2023-03-31T03:04:26.905Z,17.39
2023-03-31T03:07:26.695Z,17.35
2023-03-31T03:10:10.438Z,17.34
2023-03-31T03:13:13.703Z,17.30
2023-03-31T03:16:24.520Z,17.24
2023-03-31T03:19:01.788Z,17.17
2023-03-31T03:21:30.863Z,17.08
2023-03-31T03:24:00.226Z,17.10
2023-03-31T03:26:28.567Z,17.07
2023-03-31T03:28:57.494Z,17.06
2023-03-31T03:31:25.953Z,17.09
2023-03-31T03:33:54.200Z,17.12
2023-03-31T03:36:23.093Z,17.16
2023-03-31T03:38:51.036Z,17.10
2023-03-31T03:41:18.791Z,17.11
2023-03-31T03:43:46.707Z,17.09
2023-03-31T03:46:14.517Z,17.00
2023-03-31T03:48:42.402Z,16.91
2023-03-31T03:51:10.431Z,16.84
2023-03-31T03:53:38.252Z,16.79
2023-03-31T03:56:06.739Z,16.77
2023-03-31T03:58:36.042Z,16.72
2023-03-31T04:01:04.303Z,16.73
2023-03-31T04:03:32.309Z,16.74
2023-03-31T04:06:00.149Z,16.75
2023-03-31T04:08:27.809Z,16.79
2023-03-31T04:10:55.851Z,16.80
2023-03-31T04:13:24.090Z,16.82
2023-03-31T04:15:53.037Z,16.85
2023-03-31T04:18:23.824Z,16.85
2023-03-31T04:21:05.629Z,16.86
2023-03-31T04:23:34.806Z,16.70
2023-03-31T04:26:03.881Z,16.81
2023-03-31T04:28:34.895Z,16.83
2023-03-31T04:31:06.182Z,16.89
2023-03-31T04:33:34.187Z,16.83
2023-03-31T04:36:07.410Z,16.93
2023-03-31T04:38:35.545Z,16.92
2023-03-31T04:41:03.329Z,16.91
2023-03-31T04:43:31.233Z,16.91
2023-03-31T04:45:59.261Z,16.91
2023-03-31T04:48:27.250Z,16.91
2023-03-31T04:50:54.948Z,16.93
2023-03-31T04:53:22.983Z,16.88
2023-03-31T04:55:50.984Z,16.87
2023-03-31T04:58:19.871Z,16.86
2023-03-31T05:00:49.464Z,16.92
2023-03-31T05:03:19.629Z,16.93
2023-03-31T05:05:49.395Z,16.91
2023-03-31T05:08:17.293Z,16.90
2023-03-31T05:10:45.181Z,16.90
2023-03-31T05:13:12.888Z,16.89
2023-03-31T05:15:41.613Z,16.91
2023-03-31T05:18:09.300Z,16.90
2023-03-31T05:20:37.021Z,16.89
2023-03-31T05:23:04.777Z,16.85
2023-03-31T05:25:33.513Z,16.82
2023-03-31T05:28:02.446Z,16.79
2023-03-31T05:30:30.400Z,16.74
2023-03-31T05:32:58.205Z,16.73
2023-03-31T05:35:26.551Z,16.69
2023-03-31T05:37:54.727Z,16.66
2023-03-31T05:40:24.349Z,16.59
2023-03-31T05:42:52.104Z,16.60
2023-03-31T05:45:19.933Z,16.60
2023-03-31T05:47:47.855Z,16.57
2023-03-31T05:50:18.103Z,16.54
2023-03-31T05:52:46.426Z,16.53
2023-03-31T05:55:14.302Z,16.54
2023-03-31T05:57:42.007Z,16.55
2023-03-31T06:00:17.484Z,16.55
2023-03-31T06:02:47.086Z,16.52
2023-03-31T06:05:14.946Z,16.50
2023-03-31T06:07:42.824Z,16.47
2023-03-31T06:10:10.958Z,16.44
2023-03-31T06:12:38.861Z,16.41
2023-03-31T06:15:07.621Z,16.43
2023-03-31T06:17:38.722Z,16.42
2023-03-31T06:20:23.970Z,16.43
2023-03-31T06:22:55.887Z,16.39
2023-03-31T06:25:24.714Z,16.38
2023-03-31T06:27:52.600Z,16.37
2023-03-31T06:30:20.584Z,16.36
2023-03-31T06:32:51.298Z,16.36
2023-03-31T06:35:19.088Z,16.29
2023-03-31T06:37:46.765Z,16.25
2023-03-31T06:40:16.015Z,16.31
2023-03-31T06:42:44.230Z,16.30
2023-03-31T06:45:11.976Z,16.36
2023-03-31T06:47:41.434Z,16.38
2023-03-31T06:50:13.104Z,16.41
2023-03-31T06:52:40.941Z,16.44
2023-03-31T06:55:09.622Z,16.45
2023-03-31T06:57:37.763Z,16.47
2023-03-31T07:00:07.751Z,16.52
2023-03-31T07:02:37.534Z,16.46
2023-03-31T07:05:08.273Z,16.55
2023-03-31T07:07:43.285Z,16.58
2023-03-31T07:10:15.006Z,16.57
2023-03-31T07:12:43.848Z,16.61
2023-03-31T07:15:11.787Z,16.56
2023-03-31T07:17:42.274Z,16.62
2023-03-31T07:20:15.044Z,16.66
2023-03-31T07:22:47.839Z,16.68
2023-03-31T07:25:17.941Z,16.68
2023-03-31T07:27:45.737Z,16.76
2023-03-31T07:30:20.067Z,16.77
2023-03-31T07:32:50.271Z,16.80
2023-03-31T07:35:19.950Z,16.89
2023-03-31T07:37:49.688Z,17.03
2023-03-31T07:40:30.981Z,17.18
2023-03-31T07:43:01.928Z,17.09
2023-03-31T07:45:29.630Z,17.22
2023-03-31T07:47:57.556Z,17.34
2023-03-31T07:50:25.421Z,17.36
2023-03-31T07:52:57.130Z,17.38
2023-03-31T07:55:30.718Z,17.35
2023-03-31T07:58:01.611Z,17.32
2023-03-31T08:00:32.920Z,17.29
2023-03-31T08:03:01.136Z,17.34
2023-03-31T08:05:29.028Z,17.49
2023-03-31T08:07:56.680Z,17.52
2023-03-31T08:10:28.738Z,17.59
2023-03-31T08:12:56.610Z,17.57
2023-03-31T08:15:26.126Z,17.64
2023-03-31T08:17:54.047Z,17.64
2023-03-31T08:20:25.018Z,17.66
2023-03-31T08:22:53.604Z,17.66
2023-03-31T08:25:22.153Z,17.76
2023-03-31T08:27:51.593Z,17.80
2023-03-31T08:30:20.557Z,17.88
2023-03-31T08:32:50.783Z,17.89
2023-03-31T08:35:20.523Z,17.95
2023-03-31T08:37:48.470Z,18.01
2023-03-31T08:40:23.804Z,18.08
2023-03-31T08:43:00.580Z,18.14
2023-03-31T08:45:39.665Z,18.22
2023-03-31T08:48:29.805Z,18.23
2023-03-31T08:51:21.720Z,18.26
2023-03-31T08:54:08.267Z,18.31
2023-03-31T08:56:44.407Z,18.35
2023-03-31T08:59:40.607Z,18.46
2023-03-31T09:02:40.114Z,18.56
2023-03-31T09:06:08.396Z,18.66
2023-03-31T09:08:44.797Z,18.67
2023-03-31T09:11:38.298Z,18.84
2023-03-31T09:14:30.332Z,18.91
2023-03-31T09:17:26.442Z,18.98
2023-03-31T09:20:09.834Z,19.05
2023-03-31T09:23:25.541Z,19.17
2023-03-31T09:25:55.531Z,19.20
2023-03-31T09:28:40.594Z,19.34
2023-03-31T09:31:16.362Z,19.46
2023-03-31T09:33:49.479Z,19.56
2023-03-31T09:36:24.925Z,19.66
2023-03-31T09:38:57.543Z,19.74
2023-03-31T09:41:26.044Z,19.86
2023-03-31T09:43:53.839Z,19.91
2023-03-31T09:46:35.432Z,20.09
2023-03-31T09:49:19.809Z,20.21
2023-03-31T09:52:01.626Z,20.35
2023-03-31T09:54:43.981Z,20.48
2023-03-31T09:57:35.079Z,20.51
2023-03-31T10:00:17.827Z,20.51
2023-03-31T10:02:56.148Z,20.48
2023-03-31T10:05:36.559Z,20.60
2023-03-31T10:08:23.703Z,20.68
2023-03-31T10:10:56.891Z,20.75
2023-03-31T10:13:35.668Z,20.76
2023-03-31T10:16:14.689Z,20.81
2023-03-31T10:18:43.667Z,20.80
2023-03-31T10:21:27.198Z,20.80
2023-03-31T10:23:56.256Z,20.83
2023-03-31T10:26:28.662Z,20.89
2023-03-31T10:28:58.906Z,20.89
2023-03-31T10:31:35.620Z,20.87
2023-03-31T10:34:16.975Z,20.83
2023-03-31T10:36:53.663Z,20.85
2023-03-31T10:39:31.055Z,20.80
2023-03-31T10:42:01.143Z,20.65
2023-03-31T10:44:35.459Z,20.56
2023-03-31T10:47:22.076Z,20.34
2023-03-31T10:49:57.816Z,20.09
2023-03-31T10:52:49.372Z,19.53
2023-03-31T10:55:30.083Z,19.06
2023-03-31T10:59:10.418Z,18.28
2023-03-31T11:01:48.137Z,17.84
2023-03-31T11:04:40.632Z,17.59
2023-03-31T11:07:45.534Z,17.51
2023-03-31T11:10:28.300Z,17.63
2023-03-31T11:13:17.470Z,17.75
2023-03-31T11:16:22.841Z,17.86
2023-03-31T11:18:56.523Z,17.90
2023-03-31T11:21:43.631Z,18.02
2023-03-31T11:24:57.896Z,18.02
2023-03-31T11:28:08.707Z,18.03
2023-03-31T11:31:03.318Z,18.05
2023-03-31T11:34:08.878Z,18.04
2023-03-31T11:36:59.585Z,18.19
2023-03-31T11:39:40.794Z,18.20
2023-03-31T11:42:18.267Z,18.25
2023-03-31T11:44:54.948Z,18.26
2023-03-31T11:47:33.027Z,18.37
2023-03-31T11:50:17.456Z,18.50
2023-03-31T11:53:06.255Z,18.56
2023-03-31T11:55:35.763Z,18.59
2023-03-31T11:58:16.023Z,18.68
2023-03-31T12:01:05.218Z,18.69
2023-03-31T12:04:01.854Z,18.75
2023-03-31T12:06:43.006Z,18.85
2023-03-31T12:09:29.536Z,18.99
2023-03-31T12:12:18.648Z,19.19
2023-03-31T12:15:13.556Z,19.24
2023-03-31T12:17:49.457Z,19.28
2023-03-31T12:20:55.614Z,19.29
2023-03-31T12:23:33.088Z,19.30
2023-03-31T12:26:59.477Z,19.33
2023-03-31T12:29:39.554Z,19.37
2023-03-31T12:32:24.064Z,19.37
2023-03-31T12:35:00.317Z,19.34
2023-03-31T12:38:05.802Z,19.29
2023-03-31T12:40:41.235Z,19.41
2023-03-31T12:43:47.095Z,19.41
2023-03-31T12:47:15.162Z,19.47
2023-03-31T12:50:40.010Z,19.54
2023-03-31T12:53:36.244Z,19.68
2023-03-31T12:56:04.487Z,19.75
2023-03-31T12:58:37.388Z,19.86
2023-03-31T13:01:17.621Z,19.98
2023-03-31T13:04:07.036Z,20.07
2023-03-31T13:06:37.650Z,20.10
2023-03-31T13:09:37.723Z,20.13
2023-03-31T13:12:16.200Z,20.08
2023-03-31T13:14:47.807Z,20.17
2023-03-31T13:17:26.455Z,20.19
2023-03-31T13:19:56.201Z,20.15
2023-03-31T13:22:36.219Z,20.17
2023-03-31T13:25:33.387Z,20.16
2023-03-31T13:28:13.908Z,20.09
2023-03-31T13:30:41.622Z,20.16
2023-03-31T13:33:40.662Z,20.20
2023-03-31T13:36:58.366Z,20.10
2023-03-31T13:39:56.285Z,20.01
2023-03-31T13:42:51.596Z,19.99
2023-03-31T13:46:15.697Z,19.93
2023-03-31T13:49:25.721Z,19.91
2023-03-31T13:52:03.901Z,19.89
2023-03-31T13:55:05.092Z,19.91
2023-03-31T13:58:24.971Z,19.82
2023-03-31T14:01:27.720Z,19.70
2023-03-31T14:04:49.839Z,19.61
2023-03-31T14:07:31.754Z,19.53
2023-03-31T14:09:59.809Z,19.46
2023-03-31T14:12:35.779Z,19.52
2023-03-31T14:15:07.089Z,19.46
2023-03-31T14:17:41.111Z,19.47
2023-03-31T14:20:29.416Z,19.49
2023-03-31T14:23:40.098Z,19.42
2023-03-31T14:27:31.008Z,19.26
2023-03-31T14:30:27.247Z,19.17
2023-03-31T14:33:26.898Z,19.17
2023-03-31T14:36:47.493Z,19.06
2023-03-31T14:39:21.822Z,18.99
2023-03-31T14:41:55.549Z,18.87
2023-03-31T14:44:26.435Z,18.80
2023-03-31T14:46:58.346Z,18.85
2023-03-31T14:49:36.886Z,18.84
2023-03-31T14:52:25.682Z,18.89
2023-03-31T14:54:53.851Z,18.78
2023-03-31T14:57:32.857Z,18.88
2023-03-31T15:00:06.247Z,18.87
2023-03-31T15:02:41.709Z,18.90
2023-03-31T15:05:24.242Z,18.91
2023-03-31T15:07:52.340Z,18.88
2023-03-31T15:10:22.082Z,18.89
2023-03-31T15:12:51.716Z,18.94
2023-03-31T15:15:21.113Z,18.91
2023-03-31T15:17:49.136Z,18.90
2023-03-31T15:20:31.797Z,18.93
2023-03-31T15:23:18.677Z,18.84
2023-03-31T15:25:46.791Z,18.75
2023-03-31T15:28:17.884Z,18.68
2023-03-31T15:30:50.383Z,18.53
2023-03-31T15:33:36.587Z,18.53
2023-03-31T15:36:04.972Z,18.48
2023-03-31T15:38:32.941Z,18.45
2023-03-31T15:41:03.267Z,18.41
2023-03-31T15:43:47.830Z,18.37
2023-03-31T15:46:44.719Z,18.36
2023-03-31T15:49:24.288Z,18.34
2023-03-31T15:51:56.929Z,18.31
2023-03-31T15:54:42.657Z,18.35
2023-03-31T15:57:22.084Z,18.31
2023-03-31T15:59:56.697Z,18.35
2023-03-31T16:02:46.980Z,18.40
2023-03-31T16:05:53.528Z,18.42
2023-03-31T16:08:48.526Z,18.43
2023-03-31T16:11:35.818Z,18.44
2023-03-31T16:14:56.984Z,18.39
2023-03-31T16:17:34.392Z,18.26
2023-03-31T16:20:16.754Z,18.21
2023-03-31T16:22:50.284Z,18.06
2023-03-31T16:25:24.024Z,18.00
2023-03-31T16:27:57.004Z,17.84
2023-03-31T16:30:44.912Z,17.79
2023-03-31T16:33:54.790Z,17.63
2023-03-31T16:36:42.873Z,17.51
2023-03-31T16:39:10.845Z,17.40
2023-03-31T16:41:39.553Z,17.24
2023-03-31T16:44:08.853Z,17.14
2023-03-31T16:46:39.453Z,17.07
2023-03-31T16:49:07.433Z,17.02
2023-03-31T16:51:35.322Z,16.96
2023-03-31T16:54:03.404Z,16.87
2023-03-31T16:56:31.504Z,16.76
2023-03-31T16:58:59.218Z,16.72
2023-03-31T17:01:27.179Z,16.61
2023-03-31T17:03:57.438Z,16.50
2023-03-31T17:06:25.429Z,16.46
2023-03-31T17:08:54.707Z,16.44
2023-03-31T17:11:23.729Z,16.44
2023-03-31T17:13:52.651Z,16.37
2023-03-31T17:16:32.952Z,16.29
2023-03-31T17:19:13.671Z,16.10
2023-03-31T17:21:41.936Z,16.08
2023-03-31T17:24:11.424Z,16.04
2023-03-31T17:26:39.510Z,15.94
2023-03-31T17:29:07.388Z,15.95
2023-03-31T17:31:37.377Z,16.01
2023-03-31T17:34:06.858Z,16.00
2023-03-31T17:36:34.720Z,15.92
2023-03-31T17:39:05.094Z,15.97
2023-03-31T17:41:33.009Z,15.91
2023-03-31T17:44:01.204Z,15.97
2023-03-31T17:46:29.064Z,15.97
2023-03-31T17:48:58.427Z,15.94
2023-03-31T17:51:27.670Z,15.89
2023-03-31T17:53:56.415Z,15.90
2023-03-31T17:56:24.783Z,15.89
2023-03-31T17:58:53.676Z,15.88
2023-03-31T18:01:21.728Z,15.91
2023-03-31T18:03:49.643Z,15.88
2023-03-31T18:06:17.731Z,15.92
2023-03-31T18:08:47.325Z,15.93
2023-03-31T18:11:15.578Z,15.95
2023-03-31T18:13:43.635Z,15.96
2023-03-31T18:16:13.231Z,16.00
2023-03-31T18:18:45.150Z,16.01
2023-03-31T18:21:14.247Z,16.04
2023-03-31T18:23:48.356Z,16.04
2023-03-31T18:26:16.425Z,16.05
2023-03-31T18:28:44.132Z,16.05
2023-03-31T18:31:13.097Z,16.03
2023-03-31T18:33:42.535Z,15.98
2023-03-31T18:36:18.760Z,16.00
2023-03-31T18:38:48.324Z,15.87
2023-03-31T18:41:19.422Z,15.87
2023-03-31T18:43:47.820Z,15.84
2023-03-31T18:46:17.257Z,15.87
2023-03-31T18:48:46.269Z,15.78
2023-03-31T18:51:14.977Z,15.86
2023-03-31T18:53:44.062Z,15.87
2023-03-31T18:56:12.858Z,15.91
2023-03-31T18:58:40.679Z,15.92
2023-03-31T19:01:08.564Z,15.93
2023-03-31T19:03:36.504Z,15.97
2023-03-31T19:06:11.050Z,16.04
2023-03-31T19:08:44.314Z,16.04
2023-03-31T19:11:15.665Z,16.04
2023-03-31T19:13:44.475Z,15.97
2023-03-31T19:16:14.356Z,15.98
2023-03-31T19:18:43.606Z,15.84
2023-03-31T19:21:12.039Z,15.66
2023-03-31T19:23:40.115Z,15.60
2023-03-31T19:26:08.995Z,15.40
2023-03-31T19:28:37.404Z,15.29
2023-03-31T19:31:05.743Z,15.17
2023-03-31T19:33:35.603Z,15.10
2023-03-31T19:36:03.946Z,15.08
2023-03-31T19:38:34.931Z,15.02
2023-03-31T19:41:05.077Z,14.96
2023-03-31T19:43:33.815Z,14.98
2023-03-31T19:46:02.304Z,15.00
2023-03-31T19:48:33.694Z,15.06
2023-03-31T19:51:06.543Z,15.07
2023-03-31T19:53:37.132Z,15.07
2023-03-31T19:56:09.372Z,15.04
2023-03-31T19:58:37.792Z,15.03
2023-03-31T20:01:18.009Z,15.07
2023-03-31T20:03:46.846Z,15.03
2023-03-31T20:06:16.284Z,15.02
2023-03-31T20:08:44.301Z,15.06
2023-03-31T20:11:16.070Z,15.09
2023-03-31T20:13:44.367Z,15.04
2023-03-31T20:16:19.033Z,15.07
2023-03-31T20:19:01.456Z,15.04
2023-03-31T20:21:35.389Z,15.00
2023-03-31T20:24:04.605Z,14.97
2023-03-31T20:26:34.196Z,14.99
2023-03-31T20:29:03.680Z,15.03
2023-03-31T20:31:39.075Z,15.05
2023-03-31T20:34:13.983Z,15.07
2023-03-31T20:36:45.520Z,15.06
2023-03-31T20:39:14.925Z,14.89
2023-03-31T20:41:43.743Z,15.00
2023-03-31T20:44:15.542Z,15.02
2023-03-31T20:46:45.443Z,15.03
2023-03-31T20:49:14.016Z,15.04
2023-03-31T20:51:42.531Z,15.11
2023-03-31T20:54:10.748Z,15.05
2023-03-31T20:56:41.342Z,15.06
2023-03-31T20:59:15.392Z,15.03
2023-03-31T21:01:45.298Z,15.02
2023-03-31T21:04:13.912Z,15.00
2023-03-31T21:06:45.330Z,14.96
2023-03-31T21:09:17.303Z,15.02
2023-03-31T21:11:45.769Z,14.98
2023-03-31T21:14:16.353Z,15.03
2023-03-31T21:16:45.064Z,14.95
2023-03-31T21:19:13.009Z,14.98
2023-03-31T21:21:41.812Z,14.96
2023-03-31T21:24:12.501Z,14.94
2023-03-31T21:26:40.803Z,14.88
2023-03-31T21:29:08.508Z,14.89
2023-03-31T21:31:36.560Z,14.86
2023-03-31T21:34:05.231Z,14.82
2023-03-31T21:36:33.204Z,14.86
2023-03-31T21:39:01.272Z,14.86
2023-03-31T21:41:31.299Z,14.90
2023-03-31T21:44:01.739Z,14.86
2023-03-31T21:46:33.545Z,14.86
2023-03-31T21:49:02.735Z,14.80
2023-03-31T21:51:30.579Z,14.83
2023-03-31T21:53:58.454Z,14.85
2023-03-31T21:56:28.301Z,14.82
2023-03-31T21:59:01.174Z,14.87
2023-03-31T22:01:29.801Z,14.81
2023-03-31T22:03:59.158Z,14.89
2023-03-31T22:06:27.141Z,14.86
2023-03-31T22:08:54.949Z,14.88
2023-03-31T22:11:23.575Z,14.83
2023-03-31T22:13:51.410Z,14.80
2023-03-31T22:16:22.142Z,14.79
2023-03-31T22:18:51.555Z,14.78
2023-03-31T22:21:25.892Z,14.78
2023-03-31T22:23:59.160Z,14.74
2023-03-31T22:26:29.794Z,14.75
2023-03-31T22:28:58.778Z,14.72
2023-03-31T22:31:46.544Z,14.70
2023-03-31T22:34:15.473Z,14.75
2023-03-31T22:36:43.213Z,14.77
2023-03-31T22:39:11.198Z,14.76
2023-03-31T22:41:39.100Z,14.77
2023-03-31T22:44:07.694Z,14.80
2023-03-31T22:46:36.976Z,14.83
2023-03-31T22:49:05.818Z,14.89
2023-03-31T22:51:34.758Z,14.91
2023-03-31T22:54:02.771Z,14.85
2023-03-31T22:56:30.906Z,14.90
2023-03-31T22:59:00.446Z,14.92
2023-03-31T23:01:28.518Z,14.93
2023-03-31T23:03:56.561Z,14.96
2023-03-31T23:06:24.506Z,14.95
2023-03-31T23:08:52.484Z,14.96
2023-03-31T23:11:20.887Z,14.98
2023-03-31T23:13:48.793Z,14.99
2023-03-31T23:16:23.341Z,14.96
2023-03-31T23:18:54.226Z,14.98
2023-03-31T23:21:26.138Z,14.92
2023-03-31T23:23:58.655Z,14.95
2023-03-31T23:26:27.836Z,14.94
2023-03-31T23:28:57.352Z,14.98
2023-03-31T23:31:29.260Z,14.98
2023-03-31T23:34:00.828Z,14.94
2023-03-31T23:36:29.214Z,14.94
2023-03-31T23:38:57.247Z,14.93
2023-03-31T23:41:27.062Z,14.96
2023-03-31T23:43:57.528Z,14.88
2023-03-31T23:46:26.067Z,14.90
2023-03-31T23:48:54.184Z,14.91
2023-03-31T23:51:21.921Z,14.92
2023-03-31T23:53:50.171Z,14.91
2023-03-31T23:56:18.347Z,14.94
2023-03-31T23:58:47.178Z,14.91
